Flight Track Log - Related Links

Times and Time Zones

All times are in EDT time to prevent confusion due to time zone crossing. See the CTL16 flight status page for this flight to view local times or setup timezone preferences in your user account.

Time Position Orientation Groundspeed Altitude Reporting Facility
EDT Latitude Longitude Course Direction KTS MPH feet Rate Location/Type
Tue 08:39:11 PM 39.3667 -84.4833 38° Northeast 125 144 1,600  Level Cincinnati TRACON
Tue 08:39:47 PM 39.3833 -84.4667 38° Northeast 137 158 2,100 632 Climbing Cincinnati TRACON
Tue 08:40:27 PM 39.4114 -84.4367 40° Northeast 154 177 2,400 472 Climbing Indianapolis Center
Tue 08:41:16 PM 39.4353 -84.4019 48° Northeast 167 192 2,800 495 Climbing Indianapolis Center
Tue 08:42:16 PM 39.4628 -84.3603 49° Northeast 167 192 3,300 694 Climbing Indianapolis Center
Tue 08:43:17 PM 39.4992 -84.3106 47° Northeast 163 188 4,200 683 Climbing Indianapolis Center
Tue 08:44:19 PM 39.5236 -84.2706 52° Northeast 163 188 4,700 484 Climbing Indianapolis Center
Tue 08:45:21 PM 39.5597 -84.2169 49° Northeast 166 191 5,200 585 Climbing Indianapolis Center
Tue 08:46:22 PM 39.5917 -84.1708 48° Northeast 168 193 5,900 537 Climbing Indianapolis Center
Tue 08:47:24 PM 39.6233 -84.1297 45° Northeast 162 186 6,300 439 Climbing Indianapolis Center
Tue 08:48:25 PM 39.6539 -84.0881 46° Northeast 159 183 6,800 326 Climbing Indianapolis Center
Tue 08:49:33 PM 39.6881 -84.0400 47° Northeast 166 191 7,000 98 Climbing Indianapolis Center
Tue 08:50:28 PM 39.7200 -83.9992 45° Northeast 172 198 7,000  Level Indianapolis Center
Tue 08:51:29 PM 39.7536 -83.9522 47° Northeast 175 201 7,000  Level Indianapolis Center
Tue 08:52:31 PM 39.7875 -83.9039 48° Northeast 177 204 7,000  Level Indianapolis Center
Tue 08:53:32 PM 39.8228 -83.8564 46° Northeast 179 206 7,000  Level Indianapolis Center
Tue 08:54:34 PM 39.8586 -83.8119 44° Northeast 178 205 7,000  Level Indianapolis Center
Tue 08:55:35 PM 39.8953 -83.7681 43° Northeast 177 204 7,000  Level Indianapolis Center
Tue 08:56:32 PM 39.9322 -83.7236 43° Northeast 177 204 7,000  Level Indianapolis Center
Tue 08:57:33 PM 39.9669 -83.6789 45° Northeast 176 203 7,000  Level Indianapolis Center
Tue 08:58:33 PM 40.0039 -83.6317 44° Northeast 175 201 7,000  Level Indianapolis Center
Tue 08:59:34 PM 40.0408 -83.5872 43° Northeast 176 203 7,000  Level Indianapolis Center
Tue 09:00:35 PM 40.0733 -83.5422 47° Northeast 176 203 7,000  Level Indianapolis Center
Tue 09:01:29 PM 40.1058 -83.5000 45° Northeast 175 201 7,000  Level Indianapolis Center
Tue 09:02:30 PM 40.1422 -83.4581 41° Northeast 175 201 7,000  Level Indianapolis Center
Tue 09:03:31 PM 40.1769 -83.4131 45° Northeast 175 201 7,000  Level Indianapolis Center
Tue 09:03:46 PM 40.1864 -83.4000 47° Northeast 175 201 7,000  Level Indianapolis Center
Tue 09:04:32 PM 40.2114 -83.3683 44° Northeast 176 203 7,000  Level Indianapolis Center
Tue 09:04:47 PM 40.2231 -83.3556 40° Northeast 177 204 7,000  Level Indianapolis Center
Tue 09:05:32 PM 40.2461 -83.3233 47° Northeast 175 201 7,000  Level Indianapolis Center
Tue 09:05:48 PM 40.2569 -83.3108 41° Northeast 173 199 7,000  Level Indianapolis Center
Tue 09:06:33 PM 40.2850 -83.2758 44° Northeast 176 203 7,000  Level Indianapolis Center
Tue 09:06:50 PM 40.2931 -83.2647 46° Northeast 177 204 7,000  Level Indianapolis Center
Tue 09:07:51 PM 40.3283 -83.2206 44° Northeast 174 200 7,000  Level Indianapolis Center
Tue 09:08:52 PM 40.3642 -83.1756 44° Northeast 175 201 7,000  Level Indianapolis Center
Tue 09:09:54 PM 40.3992 -83.1303 45° Northeast 175 201 7,000  Level Indianapolis Center
Tue 09:10:55 PM 40.4342 -83.0847 45° Northeast 174 200 7,000 -49 Level Indianapolis Center
Tue 09:11:56 PM 40.4706 -83.0406 43° Northeast 175 201 6,900  Descending Indianapolis Center
Tue 09:12:57 PM 40.5069 -82.9969 42° Northeast 175 201 7,000  Climbing Indianapolis Center
Tue 09:13:59 PM 40.5447 -82.9506 43° Northeast 174 200 6,900  Descending Indianapolis Center
Tue 09:15:00 PM 40.5783 -82.9019 48° Northeast 177 204 7,000 49 Climbing Indianapolis Center
Tue 09:16:01 PM 40.6133 -82.8569 44° Northeast 175 201 7,000  Level Indianapolis Center
Tue 09:17:03 PM 40.6472 -82.8097 47° Northeast 176 203 7,000  Level Indianapolis Center
Tue 09:18:04 PM 40.6819 -82.7625 46° Northeast 177 204 7,000 -49 Level Indianapolis Center
Tue 09:19:05 PM 40.7164 -82.7175 45° Northeast 174 200 6,900 -244 Descending Indianapolis Center
Tue 09:20:07 PM 40.7519 -82.6686 46° Northeast 181 208 6,500 -407 Descending Indianapolis Center
Tue 09:21:47 PM 40.8189 -82.5861 43° Northeast 189 217 5,800 -420 Descending Cleveland Center

Login

Don't have an account? Register now (free) for customized features, flight alerts, and more!